Time;durP1;ratioP1;P1;durP2;ratioP2;P2;SDS_P1;SDS_P2;PMS_P1;PMS_P2;Temp;Humidity;BMP_temperature;BMP_pressure;BME280_temperature;BME280_humidity;BME280_pressure;Samples;Min_cycle;Max_cycle;Signal;HPM_P1;HPM_P2
2021/01/28 00:00:35;;;;;;;0.95;0.95;;;;;;;-0.45;85.01;96873.66;4952945;29;20024;-80
2021/01/28 00:03:01;;;;;;;1.60;1.50;;;;;;;-0.36;84.66;96891.78;4920820;29;20054;-77
2021/01/28 00:05:29;;;;;;;1.00;1.00;;;;;;;-0.36;84.61;96891.78;4952396;28;20051;-78
2021/01/28 00:07:56;;;;;;;0.63;0.63;;;;;;;-0.33;85.69;96883.81;4952320;29;20110;-78
2021/01/28 00:10:22;;;;;;;0.60;0.60;;;;;;;-0.38;84.79;96877.84;4945955;29;20095;-80
2021/01/28 00:12:47;;;;;;;0.65;0.65;;;;;;;-0.38;83.33;96888.34;4917242;29;20127;-78
2021/01/28 00:15:16;;;;;;;0.75;0.68;;;;;;;-0.42;82.30;96889.34;4916800;29;20456;-78
2021/01/28 00:17:41;;;;;;;1.50;1.40;;;;;;;-0.42;79.11;96884.94;4925990;29;20151;-78
2021/01/28 00:20:12;;;;;;;1.65;1.38;;;;;;;-0.35;80.27;96893.50;4924067;29;20524;-77
2021/01/28 00:22:38;;;;;;;0.77;0.77;;;;;;;-0.31;79.64;96900.41;4924748;29;20038;-77
2021/01/28 00:25:04;;;;;;;0.50;0.50;;;;;;;-0.44;79.16;96897.28;4927567;29;20110;-79
2021/01/28 00:27:30;;;;;;;0.45;0.45;;;;;;;-0.46;80.77;96890.34;4943785;28;20028;-77
2021/01/28 00:29:56;;;;;;;1.50;1.40;;;;;;;-0.48;80.02;96892.16;4932180;29;20024;-77
2021/01/28 00:32:22;;;;;;;1.80;1.00;;;;;;;-0.38;80.93;96894.47;4929872;29;20027;-78
2021/01/28 00:34:47;;;;;;;3.95;2.25;;;;;;;-0.37;81.90;96890.91;4919132;29;20106;-78
2021/01/28 00:37:13;;;;;;;2.40;1.13;;;;;;;-0.35;81.44;96888.25;4938680;29;20505;-77
2021/01/28 00:39:38;;;;;;;4.47;2.53;;;;;;;-0.26;82.77;96904.63;4923709;29;20032;-77
2021/01/28 00:42:04;;;;;;;0.68;0.68;;;;;;;-0.36;83.65;96897.91;4923952;29;20118;-79
2021/01/28 00:44:30;;;;;;;1.05;1.05;;;;;;;-0.30;82.26;96895.09;4923512;29;20460;-78
2021/01/28 00:46:55;;;;;;;1.52;1.42;;;;;;;-0.25;83.34;96895.84;4931627;29;20067;-77
2021/01/28 00:49:21;;;;;;;2.45;1.27;;;;;;;-0.26;80.32;96906.38;4923841;29;20024;-77
2021/01/28 00:51:46;;;;;;;0.90;0.90;;;;;;;-0.28;81.31;96905.56;4947185;29;20028;-78
2021/01/28 00:54:12;;;;;;;1.00;1.00;;;;;;;-0.36;83.51;96895.28;4928005;29;20126;-78
2021/01/28 00:56:37;;;;;;;2.38;2.17;;;;;;;-0.33;83.03;96900.44;4942780;29;20039;-79
2021/01/28 00:59:03;;;;;;;12.75;2.20;;;;;;;-0.42;85.00;96902.47;4918582;29;20040;-78
2021/01/28 01:01:29;;;;;;;0.95;0.95;;;;;;;-0.51;85.80;96890.47;4929096;29;20092;-78
2021/01/28 01:03:54;;;;;;;0.50;0.50;;;;;;;-0.64;87.15;96883.84;4925113;29;20507;-77
2021/01/28 01:06:20;;;;;;;3.45;1.63;;;;;;;-0.48;84.80;96887.75;4926665;29;20376;-77
2021/01/28 01:08:45;;;;;;;2.50;1.95;;;;;;;-0.36;83.87;96895.28;4918483;29;20424;-78
2021/01/28 01:11:12;;;;;;;1.35;1.25;;;;;;;-0.28;85.87;96897.69;4926745;29;20055;-78
2021/01/28 01:13:39;;;;;;;4.25;2.70;;;;;;;-0.35;85.30;96904.03;4942578;28;20514;-78
2021/01/28 01:16:06;;;;;;;1.17;1.17;;;;;;;-0.53;85.73;96892.28;4918709;29;20043;-77
2021/01/28 01:18:33;;;;;;;4.43;2.33;;;;;;;-0.46;85.68;96895.59;4936643;29;20036;-78
2021/01/28 01:21:00;;;;;;;2.42;1.77;;;;;;;-0.45;85.48;96889.44;4932190;29;20036;-77
2021/01/28 01:23:26;;;;;;;1.95;1.85;;;;;;;-0.45;85.66;96884.19;4958214;28;20028;-77
2021/01/28 01:25:52;;;;;;;1.65;1.40;;;;;;;-0.36;84.50;96886.53;4941543;28;20043;-77
2021/01/28 01:28:18;;;;;;;1.33;1.13;;;;;;;-0.39;86.25;96884.84;4910769;29;20048;-77
2021/01/28 01:30:44;;;;;;;2.08;1.77;;;;;;;-0.40;86.52;96874.41;4917881;29;20054;-77
2021/01/28 01:33:10;;;;;;;3.30;2.17;;;;;;;-0.35;87.64;96885.63;4918497;29;20432;-77
2021/01/28 01:35:36;;;;;;;2.85;1.90;;;;;;;-0.33;87.46;96891.69;4920386;29;20028;-77
2021/01/28 01:38:03;;;;;;;3.30;1.90;;;;;;;-0.32;85.97;96888.16;4924117;29;20036;-77
2021/01/28 01:40:37;;;;;;;1.67;1.58;;;;;;;-0.37;86.47;96888.28;4958389;28;20039;-77
2021/01/28 01:43:05;;;;;;;0.88;0.88;;;;;;;-0.50;88.81;96867.72;4956864;28;20024;-78
2021/01/28 01:46:09;;;;;;;1.27;1.20;;;;;;;-0.43;86.97;96883.22;4943931;29;20023;-78
2021/01/28 01:48:38;;;;;;;1.55;1.42;;;;;;;-0.42;85.64;96884.09;4913983;29;20045;-77
2021/01/28 01:51:28;;;;;;;2.58;2.38;;;;;;;-0.39;85.32;96884.84;4917686;29;20423;-78
2021/01/28 01:53:56;;;;;;;1.27;1.27;;;;;;;-0.41;87.11;96881.44;4942030;29;20032;-78
2021/01/28 01:56:38;;;;;;;2.75;2.38;;;;;;;-0.50;85.01;96878.22;4946355;29;20032;-78
2021/01/28 01:59:07;;;;;;;7.93;2.00;;;;;;;-0.47;87.33;96884.25;4954160;28;20035;-77
2021/01/28 02:02:02;;;;;;;1.77;1.30;;;;;;;-0.44;86.86;96884.16;4943118;29;20284;-78
2021/01/28 02:04:28;;;;;;;3.25;1.90;;;;;;;-0.50;82.24;96880.84;4942107;28;20036;-77
2021/01/28 02:06:59;;;;;;;1.85;1.70;;;;;;;-0.43;81.21;96888.47;4933740;29;20039;-77
2021/01/28 02:09:24;;;;;;;1.80;1.70;;;;;;;-0.43;80.24;96890.25;4933933;29;20098;-78
2021/01/28 02:11:50;;;;;;;3.90;2.58;;;;;;;-0.46;81.29;96898.22;4925358;29;20523;-77
2021/01/28 02:14:17;;;;;;;3.63;2.97;;;;;;;-0.48;79.78;96897.41;4931327;29;20059;-76
2021/01/28 02:16:50;;;;;;;4.15;2.17;;;;;;;-0.56;80.94;96887.13;4922488;29;20171;-77
2021/01/28 02:19:58;;;;;;;3.30;3.08;;;;;;;-0.49;81.57;96904.41;4931361;29;20416;-77
2021/01/28 02:22:44;;;;;;;1.33;1.20;;;;;;;-0.48;82.86;96911.41;4930237;28;20055;-77
2021/01/28 02:25:37;;;;;;;0.98;0.98;;;;;;;-0.47;81.63;96907.88;4922831;29;20098;-77
2021/01/28 02:28:11;;;;;;;1.10;1.10;;;;;;;-0.58;79.96;96916.03;4924773;29;20139;-79
2021/01/28 02:30:39;;;;;;;1.92;1.80;;;;;;;-0.61;78.44;96905.63;4928716;29;20107;-78
2021/01/28 02:33:06;;;;;;;2.22;1.88;;;;;;;-0.54;81.06;96901.06;4954003;28;20032;-78
2021/01/28 02:35:32;;;;;;;0.80;0.80;;;;;;;-0.57;81.55;96906.41;4937618;29;20039;-78
2021/01/28 02:38:01;;;;;;;2.45;2.25;;;;;;;-0.47;84.11;96914.88;4922441;29;20032;-78
2021/01/28 02:40:29;;;;;;;0.88;0.88;;;;;;;-0.59;84.17;96895.97;4940775;28;20063;-78
2021/01/28 02:42:55;;;;;;;1.77;1.67;;;;;;;-0.51;84.90;96895.72;4917721;29;20106;-77
2021/01/28 02:45:28;;;;;;;0.57;0.57;;;;;;;-0.56;85.35;96908.13;4917322;29;20476;-77
2021/01/28 02:47:56;;;;;;;2.15;2.05;;;;;;;-0.57;82.26;96886.28;4917624;29;20567;-77
2021/01/28 02:50:22;;;;;;;24.05;3.83;;;;;;;-0.55;81.28;96897.56;4932881;29;20062;-79
2021/01/28 02:52:52;;;;;;;3.63;2.25;;;;;;;-0.52;80.79;96894.00;4941316;28;20067;-79
2021/01/28 02:55:18;;;;;;;1.13;1.13;;;;;;;-0.55;79.94;96899.34;4923714;29;20030;-79
2021/01/28 02:57:44;;;;;;;4.75;3.60;;;;;;;-0.39;80.51;96902.38;4921977;29;20107;-79
2021/01/28 03:00:15;;;;;;;4.30;1.15;;;;;;;-0.40;81.79;96903.31;4929756;29;20031;-80
2021/01/28 03:02:41;;;;;;;0.77;0.77;;;;;;;-0.58;82.88;96905.53;4945065;28;20020;-79
2021/01/28 03:05:08;;;;;;;5.78;2.15;;;;;;;-0.51;81.54;96903.59;4921111;29;20424;-80
2021/01/28 03:07:33;;;;;;;2.55;2.20;;;;;;;-0.45;85.94;96899.94;4938107;29;20043;-77
2021/01/28 03:09:59;;;;;;;3.00;2.58;;;;;;;-0.57;85.75;96896.78;4920319;29;20019;-78
2021/01/28 03:12:24;;;;;;;5.40;2.42;;;;;;;-0.48;86.35;96894.78;4923140;29;20034;-77
2021/01/28 03:14:50;;;;;;;1.48;1.25;;;;;;;-0.46;87.01;96895.59;4926511;29;20027;-77
2021/01/28 03:17:16;;;;;;;1.27;1.17;;;;;;;-0.62;86.63;96903.94;4917128;29;20023;-78
2021/01/28 03:19:42;;;;;;;0.43;0.43;;;;;;;-0.65;87.12;96904.03;4940859;28;20036;-78
2021/01/28 03:22:07;;;;;;;1.70;0.95;;;;;;;-0.71;86.95;96898.91;4940768;29;20019;-77
2021/01/28 03:24:33;;;;;;;0.70;0.70;;;;;;;-0.59;86.99;96893.34;4922343;29;20036;-78
2021/01/28 03:26:59;;;;;;;18.73;1.30;;;;;;;-0.58;87.74;96895.03;4927402;29;20118;-78
2021/01/28 03:29:24;;;;;;;1.23;1.13;;;;;;;-0.69;84.06;96901.50;4947165;29;20534;-77
2021/01/28 03:31:50;;;;;;;0.70;0.70;;;;;;;-0.57;81.99;96899.41;4940151;29;20028;-78
2021/01/28 03:34:16;;;;;;;0.70;0.70;;;;;;;-0.61;84.35;96886.38;4925316;29;20107;-78
2021/01/28 03:36:41;;;;;;;0.70;0.70;;;;;;;-0.54;85.34;96887.94;4924913;29;20036;-77
2021/01/28 03:39:07;;;;;;;0.60;0.60;;;;;;;-0.43;87.02;96898.97;4923480;29;20083;-77
2021/01/28 03:41:33;;;;;;;0.45;0.45;;;;;;;-0.61;85.68;96895.13;4936073;28;20048;-77
2021/01/28 03:43:59;;;;;;;0.85;0.85;;;;;;;-0.55;81.57;96894.94;4922940;29;20032;-78
2021/01/28 03:46:24;;;;;;;3.83;1.95;;;;;;;-0.63;80.34;96877.72;4924278;29;20484;-77
2021/01/28 03:48:50;;;;;;;0.25;0.25;;;;;;;-0.53;80.35;96888.81;4940906;29;20056;-77
2021/01/28 03:51:16;;;;;;;0.73;0.73;;;;;;;-0.50;79.97;96880.84;4925022;29;20048;-77
2021/01/28 03:53:41;;;;;;;0.65;0.65;;;;;;;-0.61;82.29;96874.13;4948246;29;20032;-77
2021/01/28 03:56:07;;;;;;;0.95;0.95;;;;;;;-0.61;83.54;96873.25;4924821;29;20134;-79
2021/01/28 03:58:32;;;;;;;2.20;1.63;;;;;;;-0.67;86.01;96878.69;4926166;29;20060;-78
2021/01/28 04:00:58;;;;;;;1.23;1.23;;;;;;;-0.72;86.16;96878.84;4927847;29;20385;-78
2021/01/28 04:03:23;;;;;;;2.50;2.03;;;;;;;-0.86;86.05;96878.34;4943315;29;20027;-78
2021/01/28 04:05:49;;;;;;;2.95;1.85;;;;;;;-0.94;87.13;96885.59;4919987;29;20083;-78
2021/01/28 04:08:14;;;;;;;1.27;1.20;;;;;;;-0.93;87.91;96891.69;4943880;28;20107;-77
2021/01/28 04:10:40;;;;;;;1.20;1.10;;;;;;;-0.95;87.99;96896.97;4927575;29;20502;-78
2021/01/28 04:13:07;;;;;;;2.53;1.95;;;;;;;-0.94;89.01;96901.34;4959552;28;20035;-77
2021/01/28 04:15:33;;;;;;;2.05;1.70;;;;;;;-0.83;89.67;96903.66;4934360;28;20420;-78
2021/01/28 04:18:00;;;;;;;5.47;2.42;;;;;;;-0.98;87.93;96878.69;4921006;29;20507;-78
2021/01/28 04:20:30;;;;;;;1.27;1.20;;;;;;;-0.93;88.70;96891.69;4943261;28;20028;-78
2021/01/28 04:22:56;;;;;;;1.40;1.30;;;;;;;-0.82;89.76;96895.75;4920290;29;20035;-77
2021/01/28 04:25:24;;;;;;;2.70;2.35;;;;;;;-0.77;89.42;96904.34;4927709;29;20123;-76
2021/01/28 04:27:51;;;;;;;1.55;1.45;;;;;;;-0.92;88.36;96894.25;4942590;29;20059;-77
2021/01/28 04:30:24;;;;;;;1.45;1.35;;;;;;;-1.05;87.04;96887.66;4927295;29;20024;-76
2021/01/28 04:32:50;;;;;;;1.48;1.38;;;;;;;-1.08;86.52;96899.06;4924571;29;20123;-77
2021/01/28 04:35:16;;;;;;;2.33;2.03;;;;;;;-1.13;87.06;96900.09;4923970;29;20126;-77
2021/01/28 04:37:42;;;;;;;2.70;2.10;;;;;;;-1.16;88.16;96906.28;4931587;29;20070;-78
2021/01/28 04:40:15;;;;;;;2.00;1.83;;;;;;;-1.04;89.01;96905.09;4928642;29;20093;-77
2021/01/28 04:42:44;;;;;;;1.42;1.33;;;;;;;-1.00;89.42;96909.38;4925157;29;20408;-77
2021/01/28 04:45:12;;;;;;;1.48;1.40;;;;;;;-1.14;89.86;96898.41;4923779;29;20488;-78
2021/01/28 04:47:43;;;;;;;1.13;1.08;;;;;;;-1.08;87.79;96902.63;4924298;29;20588;-77
2021/01/28 04:50:10;;;;;;;2.20;1.92;;;;;;;-1.00;89.21;96909.38;4935985;29;20031;-78
2021/01/28 04:52:39;;;;;;;1.70;1.60;;;;;;;-0.95;88.86;96910.09;4926929;29;20032;-78
2021/01/28 04:55:08;;;;;;;1.55;1.48;;;;;;;-0.93;88.27;96913.56;4942705;29;20114;-74
2021/01/28 04:57:34;;;;;;;0.65;0.65;;;;;;;-0.97;88.19;96898.78;4942866;28;20047;-86
2021/01/28 05:00:00;;;;;;;1.70;1.58;;;;;;;-0.96;88.16;96903.16;4923557;29;20524;-78
2021/01/28 05:02:36;;;;;;;1.10;1.08;;;;;;;-1.12;86.98;96894.81;4895173;28;20048;-76
2021/01/28 05:05:05;;;;;;;1.70;1.63;;;;;;;-1.06;85.81;96872.81;4916683;29;20046;-76
2021/01/28 05:07:35;;;;;;;9.23;2.05;;;;;;;-0.93;86.27;96896.94;4918671;29;20591;-77
2021/01/28 05:10:10;;;;;;;2.45;2.30;;;;;;;-0.86;87.87;96925.59;4918501;29;20054;-77
2021/01/28 05:12:36;;;;;;;0.90;0.90;;;;;;;-0.90;88.92;96921.34;4918643;29;20042;-77
2021/01/28 05:15:19;;;;;;;1.30;1.25;;;;;;;-0.86;89.09;96927.38;4918367;29;20032;-77
2021/01/28 05:17:56;;;;;;;4.60;1.95;;;;;;;-0.84;86.04;96934.31;4916033;29;20028;-78
2021/01/28 05:20:23;;;;;;;2.22;2.03;;;;;;;-0.83;86.87;96936.00;4906686;29;20035;-79
2021/01/28 05:23:01;;;;;;;1.33;1.27;;;;;;;-0.88;86.69;96940.53;4916314;29;20122;-77
2021/01/28 05:25:26;;;;;;;1.45;1.40;;;;;;;-0.87;87.65;96944.03;4918171;29;20452;-78
2021/01/28 05:27:52;;;;;;;1.75;1.65;;;;;;;-0.92;85.51;96949.38;4917774;29;20091;-79
2021/01/28 05:30:38;;;;;;;1.10;1.10;;;;;;;-0.84;86.94;96947.44;4902360;29;20027;-78
2021/01/28 05:33:27;;;;;;;4.70;2.95;;;;;;;-0.88;88.02;96937.91;4924910;29;20091;-76
2021/01/28 05:36:21;;;;;;;5.18;4.68;;;;;;;-0.74;87.77;96955.91;4917492;29;20032;-74
2021/01/28 05:38:54;;;;;;;6.90;4.07;;;;;;;-0.78;87.80;96949.88;4918958;29;20122;-77
2021/01/28 05:41:32;;;;;;;4.72;3.30;;;;;;;-0.73;88.74;96952.38;4934475;29;20519;-77
2021/01/28 05:44:42;;;;;;;1.95;1.40;;;;;;;-0.64;87.97;96960.00;4917543;29;20036;-77
2021/01/28 05:47:18;;;;;;;2.05;1.95;;;;;;;-0.67;86.92;96958.31;4907899;29;20496;-77
2021/01/28 05:49:45;;;;;;;1.95;1.85;;;;;;;-0.68;88.14;96964.47;4918288;29;20389;-78
2021/01/28 05:52:14;;;;;;;8.57;3.17;;;;;;;-0.67;89.85;96963.56;4898777;29;20032;-77
2021/01/28 05:54:41;;;;;;;3.20;2.95;;;;;;;-0.67;87.43;96963.56;4917197;29;20139;-77
2021/01/28 05:57:11;;;;;;;4.97;3.00;;;;;;;-0.59;86.77;96972.13;4900170;29;20533;-77
2021/01/28 05:59:49;;;;;;;1.80;1.70;;;;;;;-0.56;87.75;96972.03;4917469;29;20119;-78
2021/01/28 06:02:41;;;;;;;1.95;1.85;;;;;;;-0.48;86.69;96976.19;4917600;29;20043;-77
2021/01/28 06:05:07;;;;;;;4.32;3.67;;;;;;;-0.44;87.38;96980.47;4916729;29;20039;-77
2021/01/28 06:07:35;;;;;;;9.60;6.18;;;;;;;-0.45;87.08;96976.97;4914845;29;20032;-77
2021/01/28 06:10:31;;;;;;;2.08;1.98;;;;;;;-0.49;87.43;96975.31;4917653;29;20090;-77
2021/01/28 06:13:18;;;;;;;7.28;3.20;;;;;;;-0.42;88.51;96979.50;4926455;29;20476;-79
2021/01/28 06:16:12;;;;;;;4.30;3.90;;;;;;;-0.37;85.05;96976.75;4914734;29;20036;-78
2021/01/28 06:18:59;;;;;;;9.73;4.30;;;;;;;-0.39;83.26;96975.91;4900298;29;20130;-78
2021/01/28 06:21:50;;;;;;;3.30;2.50;;;;;;;-0.39;80.53;96976.78;4917592;29;20024;-77
2021/01/28 06:24:21;;;;;;;2.63;2.40;;;;;;;-0.41;80.98;96977.75;4901708;29;20046;-77
2021/01/28 06:27:25;;;;;;;1.75;1.65;;;;;;;-0.36;82.30;96981.09;4901846;29;20059;-78
2021/01/28 06:30:21;;;;;;;2.30;1.60;;;;;;;-0.37;84.63;96971.50;4905790;29;20151;-78
2021/01/28 06:33:12;;;;;;;3.38;3.08;;;;;;;-0.28;83.25;96981.75;4930000;29;20048;-77
2021/01/28 06:36:28;;;;;;;2.30;2.13;;;;;;;-0.29;84.01;96996.66;4913896;29;20111;-78
2021/01/28 06:39:28;;;;;;;0.93;0.93;;;;;;;-0.28;85.35;96987.00;4878930;29;20032;-77
2021/01/28 06:42:00;;;;;;;5.70;3.20;;;;;;;-0.32;85.86;96982.72;4906768;29;20028;-78
2021/01/28 06:44:35;;;;;;;4.78;4.30;;;;;;;-0.28;85.07;96997.50;4907132;29;20035;-78
2021/01/28 06:47:02;;;;;;;1.60;1.50;;;;;;;-0.36;84.13;96988.97;4882230;29;20483;-78
2021/01/28 06:49:37;;;;;;;1.30;1.30;;;;;;;-0.38;85.18;96991.66;4903246;29;20032;-77
2021/01/28 06:52:14;;;;;;;0.93;0.93;;;;;;;-0.21;83.41;97004.28;4902894;29;20421;-79
2021/01/28 06:54:46;;;;;;;3.38;2.85;;;;;;;-0.10;84.88;97003.13;4908483;29;20039;-78
2021/01/28 06:57:37;;;;;;;7.83;2.50;;;;;;;-0.12;83.51;97006.66;4906052;29;20035;-78
2021/01/28 07:00:08;;;;;;;6.32;5.15;;;;;;;-0.19;81.56;97005.13;4895145;29;20300;-77
2021/01/28 07:02:36;;;;;;;2.90;2.70;;;;;;;-0.13;82.26;96997.06;4895568;29;20072;-78
2021/01/28 07:05:10;;;;;;;22.90;4.78;;;;;;;0.05;80.92;97014.94;4896972;29;20186;-78
2021/01/28 07:08:01;;;;;;;2.35;2.15;;;;;;;-0.03;79.87;97004.63;4917874;29;20032;-78
2021/01/28 07:10:39;;;;;;;4.03;3.05;;;;;;;-0.10;81.20;97007.50;4914482;29;20584;-78
2021/01/28 07:13:08;;;;;;;6.10;3.83;;;;;;;0.03;79.21;97016.75;4898909;29;20037;-78
2021/01/28 07:15:34;;;;;;;5.45;1.60;;;;;;;0.02;80.21;97014.16;4903361;29;20034;-78
2021/01/28 07:18:10;;;;;;;3.63;1.90;;;;;;;0.09;79.56;97007.81;4902099;29;20079;-79
2021/01/28 07:20:43;;;;;;;3.47;2.80;;;;;;;0.14;76.80;97004.16;4911002;29;20087;-78
2021/01/28 07:23:14;;;;;;;7.30;3.70;;;;;;;0.23;79.26;97017.00;4901609;29;20138;-78
2021/01/28 07:25:47;;;;;;;2.40;2.20;;;;;;;0.49;76.87;97024.97;4913077;29;20512;-78
2021/01/28 07:28:19;;;;;;;6.32;2.20;;;;;;;0.72;76.27;97020.75;4907891;29;20052;-77
2021/01/28 07:31:10;;;;;;;3.33;2.67;;;;;;;0.91;74.89;97029.78;4919032;29;20412;-79
2021/01/28 07:33:37;;;;;;;5.43;4.32;;;;;;;1.25;75.41;97019.00;4905749;29;20412;-78
2021/01/28 07:36:45;;;;;;;3.20;2.90;;;;;;;1.37;74.07;97027.34;4907066;29;20575;-80
2021/01/28 07:39:29;;;;;;;3.67;2.70;;;;;;;1.54;72.11;97029.38;4930460;29;20480;-78
2021/01/28 07:42:25;;;;;;;7.60;3.10;;;;;;;1.45;71.97;97038.47;4912898;29;20040;-79
2021/01/28 07:44:56;;;;;;;3.13;2.88;;;;;;;1.55;71.66;97026.72;4904056;29;20560;-78
2021/01/28 07:47:31;;;;;;;4.70;3.17;;;;;;;1.63;72.35;97035.19;4901308;29;20124;-79
2021/01/28 07:50:27;;;;;;;5.10;4.20;;;;;;;1.85;70.93;97031.78;4910675;29;20116;-78
2021/01/28 07:52:53;;;;;;;3.47;2.67;;;;;;;1.76;71.93;97026.84;4927943;29;20119;-79
2021/01/28 07:55:36;;;;;;;1.52;1.45;;;;;;;1.75;73.22;97022.53;4901300;29;20119;-80
2021/01/28 07:58:18;;;;;;;2.17;1.85;;;;;;;1.82;72.66;97034.53;4917042;29;20058;-77
2021/01/28 08:00:45;;;;;;;3.92;3.08;;;;;;;1.62;69.39;97032.63;4910878;29;20115;-78
2021/01/28 08:03:37;;;;;;;1.70;1.60;;;;;;;1.68;73.62;97027.16;4900866;29;20036;-78
2021/01/28 08:06:05;;;;;;;;;;;;;;;1.63;70.58;97040.47;4917236;29;20060;-78
2021/01/28 08:08:30;;;;;;;2.58;2.38;;;;;;;1.51;72.08;97030.34;4905955;29;19916;-78
2021/01/28 08:11:21;;;;;;;1.95;1.65;;;;;;;1.63;69.71;97035.19;4897893;29;20032;-77
2021/01/28 08:13:53;;;;;;;2.08;1.98;;;;;;;1.94;68.79;97028.84;4902448;29;20179;-79
2021/01/28 08:16:19;;;;;;;1.17;1.17;;;;;;;2.10;67.66;97033.50;4891206;29;20036;-77
2021/01/28 08:19:03;;;;;;;2.45;2.28;;;;;;;1.89;68.40;97022.88;4902144;29;20039;-78
2021/01/28 08:21:29;;;;;;;3.63;2.78;;;;;;;1.92;70.84;97031.53;4890704;29;20033;-78
2021/01/28 08:24:11;;;;;;;1.13;1.13;;;;;;;2.03;70.95;97025.88;4897488;29;20025;-78
2021/01/28 08:26:39;;;;;;;1.80;1.70;;;;;;;2.33;71.09;97037.06;4901066;29;20048;-78
2021/01/28 08:29:14;;;;;;;5.28;3.25;;;;;;;2.39;70.43;97021.84;4898505;29;20036;-78
2021/01/28 08:31:51;;;;;;;3.90;2.63;;;;;;;2.64;65.58;97042.88;4901282;29;20091;-79
2021/01/28 08:34:28;;;;;;;7.57;3.83;;;;;;;2.57;66.14;97041.41;4913177;29;20028;-79
2021/01/28 08:36:58;;;;;;;2.03;1.70;;;;;;;2.54;66.27;97046.78;4895122;29;20511;-78
2021/01/28 08:39:30;;;;;;;3.50;2.95;;;;;;;2.57;66.69;97051.94;4916017;29;20119;-78
2021/01/28 08:42:08;;;;;;;7.88;4.32;;;;;;;2.55;67.77;97049.34;4900687;29;20481;-77
2021/01/28 08:44:34;;;;;;;3.30;2.08;;;;;;;2.88;67.08;97049.84;4900704;29;21951;-79
2021/01/28 08:47:06;;;;;;;5.75;3.38;;;;;;;3.59;66.12;97056.59;4900657;29;20051;-79
2021/01/28 08:49:31;;;;;;;4.00;3.27;;;;;;;4.08;62.95;97050.03;4916238;29;20036;-78
2021/01/28 08:52:08;;;;;;;3.90;3.47;;;;;;;4.16;59.78;97045.25;4916025;29;20024;-79
2021/01/28 08:54:44;;;;;;;4.32;3.10;;;;;;;4.53;60.67;97050.59;4916103;29;20123;-79
2021/01/28 08:57:13;;;;;;;4.15;3.65;;;;;;;4.81;59.09;97059.00;4916390;29;20031;-79
2021/01/28 08:59:42;;;;;;;72.32;36.85;;;;;;;4.91;58.22;97070.88;4915620;29;20036;-79
2021/01/28 09:02:11;;;;;;;104.68;53.45;;;;;;;5.00;56.76;97072.22;4915742;29;20032;-78
2021/01/28 09:04:40;;;;;;;99.90;47.33;;;;;;;4.96;55.63;97073.28;4900026;29;20179;-79
2021/01/28 09:07:05;;;;;;;64.43;28.38;;;;;;;4.98;55.89;97063.50;4899889;29;20036;-77
2021/01/28 09:09:34;;;;;;;76.03;38.00;;;;;;;4.95;54.92;97052.19;4915032;29;20028;-79
2021/01/28 09:12:35;;;;;;;46.60;23.30;;;;;;;4.90;52.58;97066.50;4915294;29;20028;-79
2021/01/28 09:15:12;;;;;;;52.42;24.58;;;;;;;4.95;53.30;97061.00;4846445;29;20426;-78
2021/01/28 09:17:38;;;;;;;31.10;16.38;;;;;;;5.26;51.81;97055.06;4910341;29;20107;-78
2021/01/28 09:20:05;;;;;;;40.60;23.38;;;;;;;6.07;51.22;97051.84;4899767;29;20071;-78
2021/01/28 09:22:36;;;;;;;26.20;13.60;;;;;;;7.65;45.76;97050.09;4899122;29;20091;-78
2021/01/28 09:25:14;;;;;;;30.38;16.67;;;;;;;9.06;42.51;97055.59;4915078;29;20401;-78
2021/01/28 09:27:40;;;;;;;22.63;13.00;;;;;;;8.26;42.38;97051.75;4916249;29;20036;-78
2021/01/28 09:30:12;;;;;;;48.53;28.55;;;;;;;7.54;44.46;97058.69;4914650;29;20082;-78
2021/01/28 09:32:38;;;;;;;29.30;15.98;;;;;;;6.94;44.39;97052.41;4918198;29;20059;-78
2021/01/28 09:35:17;;;;;;;26.50;14.82;;;;;;;6.68;46.35;97060.06;4902673;29;20047;-78
2021/01/28 09:37:46;;;;;;;42.47;23.38;;;;;;;6.40;50.23;97047.41;4917984;29;20036;-78
2021/01/28 09:40:23;;;;;;;26.80;16.67;;;;;;;6.31;49.31;97042.59;4899388;29;20511;-79
2021/01/28 09:42:49;;;;;;;18.42;10.77;;;;;;;5.99;48.91;97039.00;4891624;29;20053;-79
2021/01/28 09:45:24;;;;;;;18.08;9.50;;;;;;;5.81;48.25;97040.78;4914845;29;20131;-78
2021/01/28 09:47:55;;;;;;;15.82;9.68;;;;;;;5.60;49.91;97041.84;4902416;29;20570;-77
2021/01/28 09:50:22;;;;;;;15.82;9.07;;;;;;;5.92;47.76;97038.44;4902733;29;20467;-78
2021/01/28 09:52:48;;;;;;;15.10;9.02;;;;;;;5.85;48.66;97039.69;4917835;29;20164;-77
2021/01/28 09:55:22;;;;;;;20.88;10.77;;;;;;;5.96;49.19;97037.34;4902467;29;20034;-77
2021/01/28 09:57:49;;;;;;;22.60;13.00;;;;;;;5.82;50.43;97031.84;4899018;29;20119;-77
2021/01/28 10:00:19;;;;;;;26.80;14.50;;;;;;;5.95;47.55;97025.00;4914624;29;20635;-78
2021/01/28 10:03:02;;;;;;;22.08;12.68;;;;;;;5.75;50.83;97025.13;4901418;29;20035;-79
2021/01/28 10:05:30;;;;;;;20.83;11.27;;;;;;;6.31;49.87;97024.00;4901747;29;20054;-78
2021/01/28 10:07:56;;;;;;;22.38;13.00;;;;;;;6.23;50.19;97023.56;4901861;29;20036;-78
2021/01/28 10:10:25;;;;;;;32.72;16.88;;;;;;;6.09;49.78;97026.09;4917991;29;20035;-77
2021/01/28 10:12:52;;;;;;;31.08;18.25;;;;;;;6.46;50.06;97020.53;4917717;29;20028;-78
2021/01/28 10:15:18;;;;;;;31.88;17.27;;;;;;;7.94;46.09;97025.25;4901856;29;20610;-78
2021/01/28 10:17:44;;;;;;;20.60;11.68;;;;;;;9.33;39.93;97020.06;4917166;29;20126;-79
2021/01/28 10:20:11;;;;;;;22.95;13.10;;;;;;;9.93;39.58;97018.69;4914371;29;20473;-78
2021/01/28 10:22:38;;;;;;;26.55;16.95;;;;;;;11.81;37.72;97013.16;4901208;29;20519;-78
2021/01/28 10:25:07;;;;;;;15.65;10.23;;;;;;;13.35;34.14;97008.09;4930021;29;20028;-78
2021/01/28 10:27:33;;;;;;;17.40;9.30;;;;;;;13.41;33.49;96992.31;4898833;29;20087;-80
2021/01/28 10:29:59;;;;;;;16.42;10.90;;;;;;;14.88;32.36;97003.06;4898538;29;20266;-79
2021/01/28 10:32:24;;;;;;;20.35;12.27;;;;;;;15.37;31.61;97002.25;4901553;29;20556;-79
2021/01/28 10:34:50;;;;;;;12.52;8.10;;;;;;;15.90;28.73;96986.63;4917252;29;20039;-79
2021/01/28 10:37:17;;;;;;;20.83;13.02;;;;;;;15.92;30.28;96987.34;4901829;29;20035;-79
2021/01/28 10:39:43;;;;;;;17.95;12.13;;;;;;;16.18;29.30;96973.13;4914983;29;20043;-78
2021/01/28 10:42:14;;;;;;;16.98;11.05;;;;;;;16.05;28.10;96969.03;4898446;29;20513;-78
2021/01/28 10:44:40;;;;;;;25.50;13.93;;;;;;;17.09;28.31;96977.03;4932985;29;20050;-79
2021/01/28 10:47:06;;;;;;;11.88;7.97;;;;;;;16.72;28.33;96967.09;4914046;29;20028;-81
2021/01/28 10:49:31;;;;;;;19.35;12.77;;;;;;;16.69;28.91;96964.69;4901568;29;20489;-81
2021/01/28 10:51:57;;;;;;;16.90;10.18;;;;;;;16.42;26.94;96953.78;4917064;29;20043;-81
2021/01/28 10:54:22;;;;;;;19.25;11.50;;;;;;;16.97;27.58;96978.22;4901554;29;20062;-79
2021/01/28 10:56:48;;;;;;;17.95;10.75;;;;;;;17.41;27.12;96977.41;4900052;29;20036;-80
2021/01/28 10:59:13;;;;;;;8.25;6.30;;;;;;;16.84;24.94;96959.66;4917080;29;20016;-79
2021/01/28 11:01:39;;;;;;;10.80;7.72;;;;;;;17.29;26.92;96962.41;4916288;29;20500;-79
2021/01/28 11:04:05;;;;;;;13.75;7.80;;;;;;;16.98;25.69;96958.31;4932686;29;20551;-80
2021/01/28 11:06:30;;;;;;;10.27;6.82;;;;;;;17.26;25.71;96968.13;4933218;29;20066;-78
2021/01/28 11:08:56;;;;;;;12.93;7.78;;;;;;;17.18;26.02;96949.09;4916964;29;20071;-78
2021/01/28 11:11:21;;;;;;;10.57;6.82;;;;;;;16.10;27.49;96954.09;4901331;29;20020;-79
2021/01/28 11:13:48;;;;;;;10.80;6.95;;;;;;;14.06;28.82;96951.00;4917167;29;20035;-79
2021/01/28 11:16:14;;;;;;;11.60;6.65;;;;;;;12.11;32.03;96949.16;4913341;29;20072;-79
2021/01/28 11:18:39;;;;;;;11.30;7.32;;;;;;;12.02;33.03;96957.91;4901266;29;20074;-79
2021/01/28 11:21:05;;;;;;;12.30;7.13;;;;;;;11.73;33.56;96962.81;4917182;29;20555;-79
2021/01/28 11:23:31;;;;;;;17.48;8.38;;;;;;;11.12;34.69;96963.84;4929718;29;20040;-79
2021/01/28 11:25:56;;;;;;;15.75;8.90;;;;;;;12.15;34.72;96977.41;4900863;29;20098;-77
2021/01/28 11:28:22;;;;;;;21.90;13.73;;;;;;;11.21;32.58;96952.44;4903353;29;20126;-77
2021/01/28 11:30:48;;;;;;;30.23;17.33;;;;;;;10.54;36.94;96955.63;4916717;29;20114;-79
2021/01/28 11:33:13;;;;;;;18.00;9.15;;;;;;;9.74;35.59;96956.78;4913758;29;20032;-78
2021/01/28 11:35:39;;;;;;;11.50;6.68;;;;;;;8.79;37.89;96963.16;4900936;29;20040;-78
2021/01/28 11:38:09;;;;;;;19.00;10.65;;;;;;;8.74;38.83;96971.44;4900994;29;20024;-78
2021/01/28 11:40:36;;;;;;;12.63;7.43;;;;;;;8.31;38.93;96961.78;4913345;29;20028;-78
2021/01/28 11:43:04;;;;;;;15.25;8.02;;;;;;;9.07;39.90;96973.78;4897652;29;20079;-78
2021/01/28 11:45:32;;;;;;;22.77;12.57;;;;;;;10.78;38.91;96968.09;4913627;29;20047;-78
2021/01/28 11:47:58;;;;;;;50.05;28.17;;;;;;;11.49;35.76;96950.38;4923615;29;20780;-77
2021/01/28 11:50:24;;;;;;;15.10;9.18;;;;;;;12.01;33.27;96944.63;4901159;29;20019;-78